Cleveland Hopkins International Airport Cleveland US
ICAO: KCLE
IATA: CLE
Category: Large
Scheduled Services: Yes

Elevation: 791 ft
TransAlt. 18000 ft.

Airport Communications:
APP:119.625
ATIS:127.85
CLNC DEL:125.05
DEP:118.15
GND:121.7
RDO:122.2
RAMP CON:129.17
TWR:120.9
UNICOM:122.95

KCLE Zoom In..

If Map Doesn't Load, Click Here

Runways:

(A) RW 06L length 9000 ft width 150 ft
ILS 111.55 / hdg 57

(B) RW 06R length 9956 ft width 150 ft
ILS 111.90 / hdg 57

(C) RW 10 length 6018 ft width 150 ft
---- / hdg 100

(D) RW 24L length 9956 ft width 150 ft
ILS 109.90 / hdg 237

(E) RW 24R length 9000 ft width 150 ft
ILS 111.55 / hdg 237

(F) RW 28 length 6018 ft width 150 ft
ILS 110.70 / hdg 280

Location; KCLE
Day. 23 / Time. 08.51 Zulu
* Altimeter: 30.21
* Temperature: 11° c. 51.8°f.
* Wind from: 000° Speed 00 kn.
Dewpoint: 09° c.
Visibility: 10 Statute Miles.
Clouds: Broken 25000 ft.

KCLE 230851Z 00000KT 10SM BKN250 11/09 A3021 RMK AO2 SLP230 T01060089 56009 $


Wind - Calm.

 
 
jpsmedia.com for Web Design worldairports.se 2018   terms of use